Hualapai, Arizona
Current Conditions -  °F | °C
As of 8:54 PM on Monday 20 Oct 2014 (Local Time) from KGCN Reporting Station
Scattered Clouds Scattered Clouds  
Wind Chill: 42°   Ceiling: Unl
Heat Index: 42°   Visibility: 10mi
Dew Point: 33°   Wind: 0mph
Humidity: 70%   Direction: NA
Pressure: 30.16"   Gusts: NA
Location:  35.9°N, 113.11°W
Report Text: KGCN 210354Z AUTO 00000KT 10SM SCT065 06/01 A3016 RMK AO2 SLP158 T00560006
Loading
Personal Weather Stations






























Interactive Weather Map
Tropical Storm Tracking
New forecast layout! Learn more

10-Day Weather Forecast

Advertisements
Track Severe Weather on mobile